createdAt,value
2022-08-26T00:01:56.419Z,6.80
2022-08-26T00:04:25.982Z,5.95
2022-08-26T00:06:57.424Z,6.07
2022-08-26T00:09:26.260Z,5.25
2022-08-26T00:11:54.820Z,6.27
2022-08-26T00:14:28.257Z,6.07
2022-08-26T00:16:58.027Z,7.43
2022-08-26T00:19:25.751Z,7.50
2022-08-26T00:21:54.397Z,7.72
2022-08-26T00:24:23.799Z,7.33
2022-08-26T00:26:51.855Z,8.95
2022-08-26T00:29:19.530Z,10.32
2022-08-26T00:31:48.971Z,13.73
2022-08-26T00:34:19.503Z,14.73
2022-08-26T00:36:50.882Z,15.53
2022-08-26T00:39:20.406Z,14.85
2022-08-26T00:41:48.569Z,13.55
2022-08-26T00:44:16.363Z,15.38
2022-08-26T00:46:49.629Z,14.13
2022-08-26T00:49:22.121Z,12.77
2022-08-26T00:51:55.864Z,13.57
2022-08-26T00:54:27.089Z,14.00
2022-08-26T00:57:16.396Z,13.82
2022-08-26T00:59:48.724Z,14.80
2022-08-26T01:02:21.152Z,12.70
2022-08-26T01:04:52.629Z,13.63
2022-08-26T01:07:25.781Z,14.27
2022-08-26T01:09:53.387Z,13.65
2022-08-26T01:12:22.372Z,13.55
2022-08-26T01:14:50.461Z,13.13
2022-08-26T01:17:18.635Z,13.13
2022-08-26T01:19:50.893Z,13.25
2022-08-26T01:22:31.572Z,13.43
2022-08-26T01:25:03.522Z,13.45
2022-08-26T01:27:33.638Z,13.27
2022-08-26T01:30:02.754Z,11.38
2022-08-26T01:32:32.203Z,12.25
2022-08-26T01:34:59.956Z,12.95
2022-08-26T01:37:33.942Z,12.25
2022-08-26T01:40:01.431Z,13.00
2022-08-26T01:42:29.665Z,12.23
2022-08-26T01:45:05.883Z,12.93
2022-08-26T01:47:35.864Z,11.75
2022-08-26T01:50:07.974Z,11.82
2022-08-26T01:52:38.611Z,11.57
2022-08-26T01:55:07.186Z,12.43
2022-08-26T01:57:36.582Z,12.90
2022-08-26T02:00:11.299Z,12.40
2022-08-26T02:02:38.812Z,12.00
2022-08-26T02:05:11.256Z,12.40
2022-08-26T02:07:40.117Z,12.35
2022-08-26T02:10:08.367Z,11.98
2022-08-26T02:12:36.778Z,13.15
2022-08-26T02:15:11.066Z,12.20
2022-08-26T02:17:46.243Z,12.60
2022-08-26T02:20:17.531Z,11.60
2022-08-26T02:22:45.690Z,11.88
2022-08-26T02:25:28.656Z,11.93
2022-08-26T02:27:57.124Z,11.68
2022-08-26T02:30:32.312Z,11.37
2022-08-26T02:33:07.330Z,13.40
2022-08-26T02:35:36.271Z,12.70
2022-08-26T02:38:10.108Z,11.07
2022-08-26T02:40:41.348Z,11.07
2022-08-26T02:43:10.000Z,11.53
2022-08-26T02:45:37.605Z,11.73
2022-08-26T02:48:16.558Z,11.60
2022-08-26T02:50:46.739Z,11.80
2022-08-26T02:53:15.768Z,12.18
2022-08-26T02:55:43.497Z,11.77
2022-08-26T02:58:11.694Z,11.43
2022-08-26T03:00:39.871Z,11.60
2022-08-26T03:03:22.471Z,11.27
2022-08-26T03:05:51.834Z,12.25
2022-08-26T03:08:19.530Z,12.23
2022-08-26T03:10:48.172Z,11.95
2022-08-26T03:13:17.045Z,12.45
2022-08-26T03:15:45.927Z,12.23
2022-08-26T03:18:15.269Z,12.70
2022-08-26T03:20:42.710Z,12.27
2022-08-26T03:23:11.527Z,12.23
2022-08-26T03:25:40.459Z,12.35
2022-08-26T03:28:07.934Z,12.25
2022-08-26T03:30:45.507Z,12.18
2022-08-26T03:33:14.225Z,12.43
2022-08-26T03:35:44.219Z,11.63
2022-08-26T03:38:12.028Z,11.88
2022-08-26T03:40:40.473Z,11.70
2022-08-26T03:43:10.256Z,12.15
2022-08-26T03:45:38.510Z,11.97
2022-08-26T03:48:06.191Z,12.45
2022-08-26T03:50:35.798Z,12.60
2022-08-26T03:53:04.612Z,13.00
2022-08-26T03:55:34.987Z,14.05
2022-08-26T03:58:02.871Z,12.70
2022-08-26T04:00:31.345Z,13.02
2022-08-26T04:02:58.726Z,12.52
2022-08-26T04:05:26.107Z,12.75
2022-08-26T04:07:55.514Z,13.23
2022-08-26T04:10:28.488Z,12.20
2022-08-26T04:12:58.781Z,12.52
2022-08-26T04:15:27.344Z,12.30
2022-08-26T04:17:55.803Z,12.15
2022-08-26T04:20:23.504Z,12.05
2022-08-26T04:22:51.174Z,12.93
2022-08-26T04:25:19.042Z,13.68
2022-08-26T04:27:48.430Z,12.85
2022-08-26T04:30:16.647Z,12.32
2022-08-26T04:32:44.362Z,11.15
2022-08-26T04:35:12.212Z,11.87
2022-08-26T04:37:39.827Z,11.10
2022-08-26T04:40:11.817Z,10.68
2022-08-26T04:42:39.242Z,11.15
2022-08-26T04:45:10.419Z,10.75
2022-08-26T04:47:39.127Z,10.33
2022-08-26T04:50:07.713Z,10.18
2022-08-26T04:52:36.964Z,10.18
2022-08-26T04:55:06.652Z,10.65
2022-08-26T04:57:35.977Z,11.13
2022-08-26T05:00:07.293Z,10.60
2022-08-26T05:02:34.931Z,9.73
2022-08-26T05:05:02.682Z,10.70
2022-08-26T05:07:31.901Z,9.85
2022-08-26T05:09:59.423Z,9.52
2022-08-26T05:12:28.132Z,9.50
2022-08-26T05:14:55.722Z,9.68
2022-08-26T05:17:23.234Z,9.77
2022-08-26T05:19:50.992Z,9.10
2022-08-26T05:22:18.420Z,9.68
2022-08-26T05:24:46.878Z,9.70
2022-08-26T05:27:15.274Z,9.15
2022-08-26T05:29:42.724Z,9.52
2022-08-26T05:32:12.194Z,9.00
2022-08-26T05:34:39.594Z,8.55
2022-08-26T05:37:10.354Z,8.27
2022-08-26T05:39:43.526Z,8.63
2022-08-26T05:42:20.073Z,7.72
2022-08-26T05:44:55.351Z,8.27
2022-08-26T05:47:24.686Z,8.18
2022-08-26T05:49:52.205Z,8.13
2022-08-26T05:52:20.672Z,9.55
2022-08-26T05:54:48.350Z,7.55
2022-08-26T05:57:16.168Z,8.65
2022-08-26T05:59:46.502Z,8.68
2022-08-26T06:02:14.111Z,8.10
2022-08-26T06:04:41.688Z,7.93
2022-08-26T06:07:11.593Z,8.00
2022-08-26T06:09:40.517Z,7.60
2022-08-26T06:12:08.067Z,7.93
2022-08-26T06:14:36.671Z,7.87
2022-08-26T06:17:04.670Z,8.07
2022-08-26T06:19:32.736Z,7.00
2022-08-26T06:22:23.312Z,7.40
2022-08-26T06:25:09.467Z,7.30
2022-08-26T06:27:37.473Z,6.57
2022-08-26T06:30:05.593Z,7.18
2022-08-26T06:32:33.901Z,7.25
2022-08-26T06:35:01.610Z,7.00
2022-08-26T06:37:29.009Z,8.88
2022-08-26T06:39:56.697Z,8.33
2022-08-26T06:42:25.069Z,8.57
2022-08-26T06:44:52.479Z,7.80
2022-08-26T06:47:19.978Z,7.95
2022-08-26T06:49:48.643Z,8.80
2022-08-26T06:52:22.919Z,7.57
2022-08-26T06:54:52.364Z,7.50
2022-08-26T06:57:20.507Z,7.22
2022-08-26T06:59:48.885Z,6.75
2022-08-26T07:02:18.822Z,6.40
2022-08-26T07:04:47.849Z,6.20
2022-08-26T07:07:16.067Z,7.97
2022-08-26T07:09:43.685Z,22.45
2022-08-26T07:12:11.113Z,6.90
2022-08-26T07:14:38.591Z,62.63
2022-08-26T07:17:11.017Z,9.10
2022-08-26T07:19:41.267Z,13.57
2022-08-26T07:22:09.027Z,13.05
2022-08-26T07:24:42.438Z,7.13
2022-08-26T07:27:14.107Z,6.05
2022-08-26T07:29:43.995Z,5.60
2022-08-26T07:32:13.815Z,6.43
2022-08-26T07:34:42.433Z,5.45
2022-08-26T07:37:10.681Z,5.80
2022-08-26T07:39:38.689Z,5.43
2022-08-26T07:42:09.289Z,5.13
2022-08-26T07:44:38.678Z,6.30
2022-08-26T07:47:25.573Z,5.63
2022-08-26T07:49:55.598Z,5.45
2022-08-26T07:52:26.905Z,5.68
2022-08-26T07:54:59.881Z,5.93
2022-08-26T07:57:28.753Z,6.15
2022-08-26T07:59:56.787Z,5.53
2022-08-26T08:02:25.593Z,4.95
2022-08-26T08:04:54.855Z,5.63
2022-08-26T08:07:38.507Z,5.80
2022-08-26T08:10:13.788Z,5.50
2022-08-26T08:12:43.098Z,6.30
2022-08-26T08:15:14.553Z,7.22
2022-08-26T08:17:46.194Z,5.30
2022-08-26T08:20:18.850Z,5.50
2022-08-26T08:22:47.151Z,5.65
2022-08-26T08:25:14.987Z,5.40
2022-08-26T08:27:45.502Z,5.63
2022-08-26T08:30:14.393Z,5.10
2022-08-26T08:32:43.841Z,4.30
2022-08-26T08:35:14.052Z,5.32
2022-08-26T08:37:42.270Z,5.00
2022-08-26T08:40:12.476Z,4.80
2022-08-26T08:42:55.371Z,4.28
2022-08-26T08:45:37.454Z,3.77
2022-08-26T08:48:13.427Z,4.60
2022-08-26T08:50:56.956Z,5.05
2022-08-26T08:53:37.961Z,4.20
2022-08-26T08:56:23.952Z,4.60
2022-08-26T08:59:04.243Z,4.20
2022-08-26T09:01:53.931Z,4.50
2022-08-26T09:04:47.348Z,4.55
2022-08-26T09:07:34.518Z,4.65
2022-08-26T09:10:22.558Z,6.63
2022-08-26T09:12:51.511Z,4.20
2022-08-26T09:15:34.645Z,4.57
2022-08-26T09:18:16.668Z,4.68
2022-08-26T09:20:59.477Z,5.90
2022-08-26T09:23:27.273Z,5.90
2022-08-26T09:25:58.145Z,4.70
2022-08-26T09:28:28.761Z,4.40
2022-08-26T09:31:32.779Z,4.55
2022-08-26T09:34:09.041Z,4.40
2022-08-26T09:36:41.377Z,4.45
2022-08-26T09:39:28.389Z,4.33
2022-08-26T09:42:06.795Z,4.65
2022-08-26T09:44:35.995Z,4.80
2022-08-26T09:47:07.225Z,4.80
2022-08-26T09:49:40.197Z,4.35
2022-08-26T09:52:13.879Z,4.83
2022-08-26T09:54:44.269Z,4.20
2022-08-26T09:57:25.192Z,4.50
2022-08-26T09:59:53.159Z,4.45
2022-08-26T10:02:38.108Z,4.53
2022-08-26T10:05:16.197Z,4.03
2022-08-26T10:07:50.285Z,4.18
2022-08-26T10:10:26.522Z,4.40
2022-08-26T10:13:29.555Z,4.82
2022-08-26T10:16:25.787Z,4.43
2022-08-26T10:19:06.840Z,4.47
2022-08-26T10:22:29.088Z,5.40
2022-08-26T10:24:59.671Z,4.40
2022-08-26T10:27:54.308Z,3.83
2022-08-26T10:30:24.643Z,3.65
2022-08-26T10:33:10.503Z,3.87
2022-08-26T10:35:50.408Z,4.53
2022-08-26T10:38:23.082Z,4.20
2022-08-26T10:41:10.364Z,4.10
2022-08-26T10:43:41.072Z,3.83
2022-08-26T10:46:17.589Z,4.50
2022-08-26T10:49:06.799Z,3.83
2022-08-26T10:51:45.753Z,4.28
2022-08-26T10:54:22.463Z,3.67
2022-08-26T10:57:09.607Z,4.03
2022-08-26T10:59:53.869Z,3.83
2022-08-26T11:02:26.273Z,3.70
2022-08-26T11:04:59.963Z,4.35
2022-08-26T11:07:52.747Z,4.03
2022-08-26T11:10:23.151Z,4.38
2022-08-26T11:13:20.194Z,4.50
2022-08-26T11:16:08.669Z,3.35
2022-08-26T11:18:44.714Z,4.00
2022-08-26T11:22:19.749Z,3.22
2022-08-26T11:24:53.352Z,4.13
2022-08-26T11:27:26.438Z,3.20
2022-08-26T11:30:01.951Z,3.53
2022-08-26T11:32:35.191Z,3.63
2022-08-26T11:35:17.737Z,3.83
2022-08-26T11:38:04.241Z,3.70
2022-08-26T11:40:38.800Z,3.70
2022-08-26T11:43:11.549Z,3.50
2022-08-26T11:45:44.988Z,3.90
2022-08-26T11:48:19.507Z,3.90
2022-08-26T11:51:01.347Z,4.07
2022-08-26T11:53:33.341Z,3.60
2022-08-26T11:56:05.134Z,3.55
2022-08-26T11:58:33.030Z,4.10
2022-08-26T12:01:09.774Z,3.30
2022-08-26T12:03:39.033Z,3.20
2022-08-26T12:06:22.638Z,2.77
2022-08-26T12:08:52.328Z,3.17
2022-08-26T12:11:24.709Z,3.60
2022-08-26T12:14:01.074Z,3.08
2022-08-26T12:16:31.340Z,3.25
2022-08-26T12:18:59.512Z,3.00
2022-08-26T12:21:31.524Z,3.10
2022-08-26T12:24:04.561Z,3.55
2022-08-26T12:26:37.476Z,3.10
2022-08-26T12:29:27.154Z,3.40
2022-08-26T12:32:17.872Z,3.60
2022-08-26T12:34:47.762Z,3.75
2022-08-26T12:37:16.316Z,3.80
2022-08-26T12:39:47.320Z,4.20
2022-08-26T12:42:17.536Z,3.95
2022-08-26T12:44:54.134Z,3.63
2022-08-26T12:47:42.925Z,3.80
2022-08-26T12:50:30.821Z,3.80
2022-08-26T12:53:12.194Z,3.60
2022-08-26T12:55:44.121Z,3.13
2022-08-26T12:58:11.648Z,3.27
2022-08-26T13:00:42.600Z,3.33
2022-08-26T13:03:38.847Z,3.30
2022-08-26T13:06:30.332Z,3.30
2022-08-26T13:09:22.247Z,2.97
2022-08-26T13:11:49.610Z,3.10
2022-08-26T13:14:24.244Z,2.70
2022-08-26T13:16:53.410Z,2.78
2022-08-26T13:19:24.006Z,3.15
2022-08-26T13:21:57.323Z,2.90
2022-08-26T13:24:38.652Z,2.63
2022-08-26T13:27:09.373Z,2.40
2022-08-26T13:29:37.055Z,2.78
2022-08-26T13:32:06.451Z,3.03
2022-08-26T13:34:35.648Z,3.15
2022-08-26T13:37:03.732Z,2.80
2022-08-26T13:39:31.297Z,2.67
2022-08-26T13:41:59.091Z,2.40
2022-08-26T13:44:26.608Z,3.53
2022-08-26T13:46:54.707Z,2.92
2022-08-26T13:49:22.943Z,3.40
2022-08-26T13:51:50.500Z,3.20
2022-08-26T13:54:18.090Z,3.22
2022-08-26T13:56:45.574Z,3.25
2022-08-26T13:59:12.955Z,3.25
2022-08-26T14:01:40.661Z,3.63
2022-08-26T14:04:08.977Z,3.05
2022-08-26T14:06:36.535Z,3.00
2022-08-26T14:09:04.773Z,3.08
2022-08-26T14:11:50.866Z,3.00
2022-08-26T14:14:19.819Z,3.10
2022-08-26T14:16:58.648Z,3.20
2022-08-26T14:19:30.395Z,3.03
2022-08-26T14:21:59.619Z,3.00
2022-08-26T14:24:27.178Z,3.00
2022-08-26T14:26:54.696Z,2.67
2022-08-26T14:29:22.266Z,3.05
2022-08-26T14:31:49.857Z,2.58
2022-08-26T14:34:17.459Z,2.85
2022-08-26T14:36:44.904Z,2.83
2022-08-26T14:39:13.896Z,2.80
2022-08-26T14:41:53.931Z,2.35
2022-08-26T14:44:26.139Z,2.20
2022-08-26T14:46:54.991Z,2.90
2022-08-26T14:49:23.961Z,3.55
2022-08-26T14:51:51.342Z,3.30
2022-08-26T14:54:20.132Z,3.10
2022-08-26T14:56:51.626Z,3.83
2022-08-26T14:59:23.223Z,3.45
2022-08-26T15:01:50.827Z,3.63
2022-08-26T15:04:19.623Z,3.60
2022-08-26T15:06:47.355Z,3.90
2022-08-26T15:09:15.343Z,3.70
2022-08-26T15:11:47.657Z,3.90
2022-08-26T15:14:19.650Z,5.13
2022-08-26T15:16:52.867Z,3.63
2022-08-26T15:19:21.267Z,4.60
2022-08-26T15:21:49.428Z,4.70
2022-08-26T15:24:22.313Z,4.10
2022-08-26T15:26:50.423Z,4.43
2022-08-26T15:29:18.642Z,5.33
2022-08-26T15:31:46.943Z,4.43
2022-08-26T15:34:16.958Z,3.88
2022-08-26T15:36:47.066Z,4.50
2022-08-26T15:39:17.403Z,4.30
2022-08-26T15:41:45.786Z,4.40
2022-08-26T15:44:14.632Z,4.32
2022-08-26T15:46:42.812Z,4.68
2022-08-26T15:49:18.548Z,4.47
2022-08-26T15:51:48.352Z,5.85
2022-08-26T15:54:17.999Z,4.90
2022-08-26T15:56:47.945Z,5.00
2022-08-26T15:59:16.516Z,5.40
2022-08-26T16:01:44.502Z,4.97
2022-08-26T16:04:12.236Z,5.28
2022-08-26T16:06:41.357Z,4.80
2022-08-26T16:09:09.563Z,5.22
2022-08-26T16:11:38.183Z,5.05
2022-08-26T16:14:06.709Z,4.97
2022-08-26T16:16:36.790Z,5.20
2022-08-26T16:19:07.425Z,4.50
2022-08-26T16:21:36.222Z,5.10
2022-08-26T16:24:05.352Z,5.10
2022-08-26T16:26:34.912Z,4.75
2022-08-26T16:29:04.935Z,5.25
2022-08-26T16:31:32.468Z,5.50
2022-08-26T16:33:59.990Z,6.07
2022-08-26T16:36:28.256Z,5.75
2022-08-26T16:38:56.989Z,5.70
2022-08-26T16:41:27.319Z,5.30
2022-08-26T16:43:55.529Z,5.03
2022-08-26T16:46:25.999Z,4.90
2022-08-26T16:48:57.042Z,5.80
2022-08-26T16:51:27.437Z,5.00
2022-08-26T16:53:57.996Z,4.90
2022-08-26T16:56:33.725Z,5.00
2022-08-26T16:59:05.524Z,4.95
2022-08-26T17:01:33.565Z,5.05
2022-08-26T17:04:01.158Z,5.68
2022-08-26T17:06:29.036Z,5.75
2022-08-26T17:08:56.801Z,6.00
2022-08-26T17:11:24.491Z,7.07
2022-08-26T17:13:52.001Z,6.68
2022-08-26T17:16:23.289Z,7.70
2022-08-26T17:18:54.958Z,7.50
2022-08-26T17:21:22.693Z,6.93
2022-08-26T17:23:50.485Z,6.53
2022-08-26T17:26:18.271Z,5.93
2022-08-26T17:28:45.747Z,6.40
2022-08-26T17:31:13.905Z,5.72
2022-08-26T17:33:41.562Z,5.70
2022-08-26T17:36:10.219Z,5.80
2022-08-26T17:38:38.472Z,5.90
2022-08-26T17:41:11.864Z,5.75
2022-08-26T17:43:40.790Z,5.80
2022-08-26T17:46:11.097Z,5.40
2022-08-26T17:48:40.620Z,6.00
2022-08-26T17:51:13.481Z,5.80
2022-08-26T17:53:42.980Z,6.20
2022-08-26T17:56:13.240Z,6.10
2022-08-26T17:58:51.025Z,6.10
2022-08-26T18:01:23.846Z,6.07
2022-08-26T18:03:51.559Z,5.65
2022-08-26T18:06:21.057Z,6.38
2022-08-26T18:08:48.761Z,6.75
2022-08-26T18:11:19.221Z,6.10
2022-08-26T18:13:47.767Z,6.28
2022-08-26T18:16:17.863Z,7.00
2022-08-26T18:18:45.899Z,6.53
2022-08-26T18:21:20.828Z,6.55
2022-08-26T18:23:50.260Z,6.20
2022-08-26T18:26:25.501Z,6.55
2022-08-26T18:28:53.904Z,6.88
2022-08-26T18:31:22.020Z,6.10
2022-08-26T18:33:49.455Z,6.30
2022-08-26T18:36:19.178Z,6.80
2022-08-26T18:38:48.020Z,6.28
2022-08-26T18:41:20.915Z,6.40
2022-08-26T18:43:50.720Z,6.40
2022-08-26T18:46:20.217Z,7.10
2022-08-26T18:48:51.192Z,6.60
2022-08-26T18:51:30.095Z,7.15
2022-08-26T18:53:58.990Z,6.95
2022-08-26T18:56:27.295Z,6.55
2022-08-26T18:58:55.024Z,6.38
2022-08-26T19:01:27.578Z,6.70
2022-08-26T19:03:59.707Z,6.55
2022-08-26T19:06:32.328Z,8.02
2022-08-26T19:09:01.568Z,7.35
2022-08-26T19:11:32.163Z,7.30
2022-08-26T19:14:10.587Z,7.43
2022-08-26T19:16:39.028Z,7.25
2022-08-26T19:19:07.355Z,7.00
2022-08-26T19:21:36.176Z,7.25
2022-08-26T19:24:07.554Z,9.80
2022-08-26T19:26:37.815Z,9.47
2022-08-26T19:29:06.165Z,10.68
2022-08-26T19:31:34.074Z,11.57
2022-08-26T19:34:01.504Z,11.50
2022-08-26T19:36:29.111Z,13.23
2022-08-26T19:38:57.060Z,11.73
2022-08-26T19:41:36.706Z,10.80
2022-08-26T19:44:13.274Z,11.45
2022-08-26T19:46:41.381Z,11.05
2022-08-26T19:49:08.796Z,11.73
2022-08-26T19:51:37.045Z,11.23
2022-08-26T19:54:05.178Z,12.50
2022-08-26T19:56:32.667Z,17.13
2022-08-26T19:59:00.141Z,17.58
2022-08-26T20:01:27.598Z,17.45
2022-08-26T20:06:23.630Z,19.48
2022-08-26T20:08:52.095Z,17.45
2022-08-26T20:11:24.259Z,14.90
2022-08-26T20:13:51.748Z,15.30
2022-08-26T20:16:19.384Z,14.30
2022-08-26T20:19:05.295Z,15.75
2022-08-26T20:21:36.181Z,14.80
2022-08-26T20:24:11.425Z,12.60
2022-08-26T20:26:41.407Z,11.02
2022-08-26T20:29:10.707Z,9.53
2022-08-26T20:31:38.967Z,10.48
2022-08-26T20:34:07.264Z,8.27
2022-08-26T20:36:35.264Z,8.45
2022-08-26T20:39:02.915Z,7.88
2022-08-26T20:41:30.590Z,7.70
2022-08-26T20:43:58.467Z,8.60
2022-08-26T20:46:26.679Z,8.65
2022-08-26T20:48:54.652Z,8.70
2022-08-26T20:51:25.657Z,9.45
2022-08-26T20:53:53.250Z,9.43
2022-08-26T20:56:24.685Z,9.32
2022-08-26T20:58:54.525Z,8.90
2022-08-26T21:01:25.335Z,9.70
2022-08-26T21:03:54.302Z,9.18
2022-08-26T21:06:22.349Z,8.13
2022-08-26T21:08:50.833Z,8.18
2022-08-26T21:11:18.626Z,7.88
2022-08-26T21:14:03.839Z,7.47
2022-08-26T21:16:32.039Z,7.15
2022-08-26T21:19:00.533Z,6.90
2022-08-26T21:21:28.421Z,7.82
2022-08-26T21:23:56.503Z,7.95
2022-08-26T21:26:24.373Z,7.90
2022-08-26T21:28:51.893Z,7.20
2022-08-26T21:31:22.122Z,7.27
2022-08-26T21:33:51.371Z,8.38
2022-08-26T21:36:20.357Z,8.05
2022-08-26T21:38:47.987Z,8.00
2022-08-26T21:41:19.674Z,8.50
2022-08-26T21:43:49.508Z,7.90
2022-08-26T21:46:22.320Z,8.65
2022-08-26T21:48:52.252Z,7.95
2022-08-26T21:51:23.032Z,8.52
2022-08-26T21:53:54.216Z,8.13
2022-08-26T21:56:23.243Z,8.40
2022-08-26T21:58:52.440Z,7.50
2022-08-26T22:01:23.025Z,8.82
2022-08-26T22:03:53.731Z,8.70
2022-08-26T22:06:27.517Z,7.90
2022-08-26T22:08:56.943Z,7.80
2022-08-26T22:11:27.150Z,7.65
2022-08-26T22:13:57.469Z,8.40
2022-08-26T22:16:27.851Z,8.25
2022-08-26T22:18:55.670Z,8.30
2022-08-26T22:21:26.855Z,7.97
2022-08-26T22:23:58.161Z,7.93
2022-08-26T22:26:29.985Z,8.32
2022-08-26T22:28:59.761Z,7.82
2022-08-26T22:31:37.826Z,8.07
2022-08-26T22:34:13.347Z,7.63
2022-08-26T22:36:44.300Z,8.18
2022-08-26T22:39:14.513Z,8.07
2022-08-26T22:41:44.709Z,7.57
2022-08-26T22:44:13.681Z,7.38
2022-08-26T22:46:42.803Z,8.70
2022-08-26T22:49:12.914Z,7.95
2022-08-26T22:51:40.542Z,8.23
2022-08-26T22:54:08.310Z,8.15
2022-08-26T22:56:38.439Z,8.07
2022-08-26T22:59:09.114Z,8.13
2022-08-26T23:01:39.356Z,7.93
2022-08-26T23:04:08.358Z,7.53
2022-08-26T23:06:41.526Z,7.50
2022-08-26T23:09:11.474Z,8.38
2022-08-26T23:11:42.426Z,7.87
2022-08-26T23:14:10.166Z,8.00
2022-08-26T23:16:44.322Z,7.43
2022-08-26T23:19:14.790Z,7.32
2022-08-26T23:21:43.528Z,7.03
2022-08-26T23:24:12.458Z,7.70
2022-08-26T23:26:41.919Z,8.02
2022-08-26T23:29:11.634Z,7.85
2022-08-26T23:31:41.186Z,7.68
2022-08-26T23:34:29.361Z,7.53
2022-08-26T23:36:58.347Z,7.23
2022-08-26T23:39:26.971Z,7.43
2022-08-26T23:41:54.928Z,8.00
2022-08-26T23:44:22.775Z,8.45
2022-08-26T23:46:50.751Z,7.22
2022-08-26T23:49:18.622Z,7.07
2022-08-26T23:52:04.711Z,7.00
2022-08-26T23:54:33.678Z,7.55
2022-08-26T23:57:01.273Z,6.57
2022-08-26T23:59:28.870Z,6.30
